sensor_id;sensor_type;location;lat;lon;timestamp;temperature;humidity
3156;DHT22;1588;50.892;7.082;2023-02-19T00:01:55;9.80;99.90
3156;DHT22;1588;50.892;7.082;2023-02-19T00:06:59;9.80;99.90
3156;DHT22;1588;50.892;7.082;2023-02-19T00:12:01;9.80;99.90
3156;DHT22;1588;50.892;7.082;2023-02-19T00:17:04;9.80;99.90
3156;DHT22;1588;50.892;7.082;2023-02-19T00:22:08;9.90;99.90
3156;DHT22;1588;50.892;7.082;2023-02-19T00:27:10;9.80;99.90
3156;DHT22;1588;50.892;7.082;2023-02-19T00:32:13;9.90;99.90
3156;DHT22;1588;50.892;7.082;2023-02-19T00:37:22;9.80;99.90
3156;DHT22;1588;50.892;7.082;2023-02-19T00:42:24;9.80;99.90
3156;DHT22;1588;50.892;7.082;2023-02-19T00:47:27;9.80;99.90
3156;DHT22;1588;50.892;7.082;2023-02-19T00:52:31;9.80;99.90
3156;DHT22;1588;50.892;7.082;2023-02-19T00:57:33;9.80;99.90
3156;DHT22;1588;50.892;7.082;2023-02-19T01:02:36;9.80;99.90
3156;DHT22;1588;50.892;7.082;2023-02-19T01:07:40;9.80;99.90
3156;DHT22;1588;50.892;7.082;2023-02-19T01:12:43;9.90;99.90
3156;DHT22;1588;50.892;7.082;2023-02-19T01:17:46;9.80;99.90
3156;DHT22;1588;50.892;7.082;2023-02-19T01:22:50;9.80;99.90
3156;DHT22;1588;50.892;7.082;2023-02-19T01:27:53;9.90;99.90
3156;DHT22;1588;50.892;7.082;2023-02-19T01:32:55;9.80;99.90
3156;DHT22;1588;50.892;7.082;2023-02-19T01:37:59;9.90;99.90
3156;DHT22;1588;50.892;7.082;2023-02-19T01:43:02;9.80;99.90
3156;DHT22;1588;50.892;7.082;2023-02-19T01:48:08;9.90;99.90
3156;DHT22;1588;50.892;7.082;2023-02-19T01:53:21;9.90;99.90
3156;DHT22;1588;50.892;7.082;2023-02-19T01:58:35;9.90;99.90
3156;DHT22;1588;50.892;7.082;2023-02-19T02:03:44;10.00;99.90
3156;DHT22;1588;50.892;7.082;2023-02-19T02:08:51;10.00;99.90
3156;DHT22;1588;50.892;7.082;2023-02-19T02:14:12;10.10;99.90
3156;DHT22;1588;50.892;7.082;2023-02-19T02:19:30;10.10;99.90
3156;DHT22;1588;50.892;7.082;2023-02-19T02:25:08;10.10;99.90
3156;DHT22;1588;50.892;7.082;2023-02-19T02:30:30;10.10;99.90
3156;DHT22;1588;50.892;7.082;2023-02-19T02:35:40;10.20;99.90
3156;DHT22;1588;50.892;7.082;2023-02-19T02:40:44;10.20;99.90
3156;DHT22;1588;50.892;7.082;2023-02-19T02:45:48;10.20;99.90
3156;DHT22;1588;50.892;7.082;2023-02-19T02:50:53;10.20;99.90
3156;DHT22;1588;50.892;7.082;2023-02-19T02:55:58;10.20;99.90
3156;DHT22;1588;50.892;7.082;2023-02-19T03:01:05;10.10;99.90
3156;DHT22;1588;50.892;7.082;2023-02-19T03:06:34;10.00;99.90
3156;DHT22;1588;50.892;7.082;2023-02-19T03:11:40;10.10;99.90
3156;DHT22;1588;50.892;7.082;2023-02-19T03:17:07;10.00;99.90
3156;DHT22;1588;50.892;7.082;2023-02-19T03:22:30;9.90;99.90
3156;DHT22;1588;50.892;7.082;2023-02-19T03:27:35;10.00;99.90
3156;DHT22;1588;50.892;7.082;2023-02-19T03:32:43;10.00;99.90
3156;DHT22;1588;50.892;7.082;2023-02-19T03:37:51;9.90;99.90
3156;DHT22;1588;50.892;7.082;2023-02-19T03:43:00;9.90;99.90
3156;DHT22;1588;50.892;7.082;2023-02-19T03:53:37;9.90;99.90
3156;DHT22;1588;50.892;7.082;2023-02-19T03:58:48;9.90;99.90
3156;DHT22;1588;50.892;7.082;2023-02-19T04:03:56;9.90;99.90
3156;DHT22;1588;50.892;7.082;2023-02-19T04:09:03;10.00;99.90
3156;DHT22;1588;50.892;7.082;2023-02-19T04:14:13;9.90;99.90
3156;DHT22;1588;50.892;7.082;2023-02-19T04:19:21;10.00;99.90
3156;DHT22;1588;50.892;7.082;2023-02-19T04:24:30;10.00;99.90
3156;DHT22;1588;50.892;7.082;2023-02-19T04:29:33;9.90;99.90
3156;DHT22;1588;50.892;7.082;2023-02-19T04:34:37;9.90;99.90
3156;DHT22;1588;50.892;7.082;2023-02-19T04:39:40;9.90;99.90
3156;DHT22;1588;50.892;7.082;2023-02-19T04:44:42;9.90;99.90
3156;DHT22;1588;50.892;7.082;2023-02-19T04:49:56;9.80;99.90
3156;DHT22;1588;50.892;7.082;2023-02-19T04:54:58;9.80;99.90
3156;DHT22;1588;50.892;7.082;2023-02-19T05:00:02;9.70;99.90
3156;DHT22;1588;50.892;7.082;2023-02-19T05:05:07;9.60;99.90
3156;DHT22;1588;50.892;7.082;2023-02-19T05:10:09;9.60;99.90
3156;DHT22;1588;50.892;7.082;2023-02-19T05:15:12;9.60;99.90
3156;DHT22;1588;50.892;7.082;2023-02-19T05:20:16;9.50;99.90
3156;DHT22;1588;50.892;7.082;2023-02-19T05:25:19;9.50;99.90
3156;DHT22;1588;50.892;7.082;2023-02-19T05:30:21;9.50;99.90
3156;DHT22;1588;50.892;7.082;2023-02-19T05:35:25;9.40;99.90
3156;DHT22;1588;50.892;7.082;2023-02-19T05:40:38;9.40;99.90
3156;DHT22;1588;50.892;7.082;2023-02-19T05:45:42;9.40;99.90
3156;DHT22;1588;50.892;7.082;2023-02-19T05:50:46;9.40;99.90
3156;DHT22;1588;50.892;7.082;2023-02-19T05:55:48;9.30;99.90
3156;DHT22;1588;50.892;7.082;2023-02-19T06:00:53;9.30;99.90
3156;DHT22;1588;50.892;7.082;2023-02-19T06:05:57;9.30;99.90
3156;DHT22;1588;50.892;7.082;2023-02-19T06:10:59;9.30;99.90
3156;DHT22;1588;50.892;7.082;2023-02-19T06:16:03;9.40;99.90
3156;DHT22;1588;50.892;7.082;2023-02-19T06:21:09;9.30;99.90
3156;DHT22;1588;50.892;7.082;2023-02-19T06:26:16;9.30;99.90
3156;DHT22;1588;50.892;7.082;2023-02-19T06:31:20;9.30;99.90
3156;DHT22;1588;50.892;7.082;2023-02-19T06:36:25;9.20;99.90
3156;DHT22;1588;50.892;7.082;2023-02-19T06:41:27;9.20;99.90
3156;DHT22;1588;50.892;7.082;2023-02-19T06:46:30;9.20;99.90
3156;DHT22;1588;50.892;7.082;2023-02-19T06:51:34;9.20;99.90
3156;DHT22;1588;50.892;7.082;2023-02-19T06:56:38;9.20;99.90
3156;DHT22;1588;50.892;7.082;2023-02-19T07:01:48;9.10;99.90
3156;DHT22;1588;50.892;7.082;2023-02-19T07:06:58;9.20;99.90
3156;DHT22;1588;50.892;7.082;2023-02-19T07:12:00;9.10;99.90
3156;DHT22;1588;50.892;7.082;2023-02-19T07:17:03;9.10;99.90
3156;DHT22;1588;50.892;7.082;2023-02-19T07:22:07;9.10;99.90
3156;DHT22;1588;50.892;7.082;2023-02-19T07:27:10;9.10;99.90
3156;DHT22;1588;50.892;7.082;2023-02-19T07:37:28;9.10;99.90
3156;DHT22;1588;50.892;7.082;2023-02-19T07:42:30;9.00;99.90
3156;DHT22;1588;50.892;7.082;2023-02-19T07:47:33;9.00;99.90
3156;DHT22;1588;50.892;7.082;2023-02-19T07:52:37;9.10;99.90
3156;DHT22;1588;50.892;7.082;2023-02-19T07:57:39;9.10;99.90
3156;DHT22;1588;50.892;7.082;2023-02-19T08:02:41;9.10;99.90
3156;DHT22;1588;50.892;7.082;2023-02-19T08:08:07;9.10;99.90
3156;DHT22;1588;50.892;7.082;2023-02-19T08:13:11;9.10;99.90
3156;DHT22;1588;50.892;7.082;2023-02-19T08:18:27;9.20;99.90
3156;DHT22;1588;50.892;7.082;2023-02-19T08:23:32;9.30;99.90
3156;DHT22;1588;50.892;7.082;2023-02-19T08:28:35;9.30;99.90
3156;DHT22;1588;50.892;7.082;2023-02-19T08:33:40;9.30;99.90
3156;DHT22;1588;50.892;7.082;2023-02-19T08:38:44;9.30;99.90
3156;DHT22;1588;50.892;7.082;2023-02-19T08:43:47;9.30;99.90
3156;DHT22;1588;50.892;7.082;2023-02-19T08:49:30;9.40;99.90
3156;DHT22;1588;50.892;7.082;2023-02-19T08:54:35;9.40;99.90
3156;DHT22;1588;50.892;7.082;2023-02-19T08:59:38;9.50;99.90
3156;DHT22;1588;50.892;7.082;2023-02-19T09:04:41;9.40;99.90
3156;DHT22;1588;50.892;7.082;2023-02-19T09:09:45;9.50;99.90
3156;DHT22;1588;50.892;7.082;2023-02-19T09:14:47;9.40;99.90
3156;DHT22;1588;50.892;7.082;2023-02-19T09:19:50;9.60;99.90
3156;DHT22;1588;50.892;7.082;2023-02-19T09:24:53;9.80;99.90
3156;DHT22;1588;50.892;7.082;2023-02-19T09:29:59;12.00;99.90
3156;DHT22;1588;50.892;7.082;2023-02-19T09:35:02;12.50;99.90
3156;DHT22;1588;50.892;7.082;2023-02-19T09:40:06;11.70;99.90
3156;DHT22;1588;50.892;7.082;2023-02-19T09:45:17;11.00;99.90
3156;DHT22;1588;50.892;7.082;2023-02-19T09:50:26;10.40;99.90
3156;DHT22;1588;50.892;7.082;2023-02-19T09:55:33;10.10;99.90
3156;DHT22;1588;50.892;7.082;2023-02-19T10:00:36;10.00;99.90
3156;DHT22;1588;50.892;7.082;2023-02-19T10:05:40;9.90;99.90
3156;DHT22;1588;50.892;7.082;2023-02-19T10:10:46;10.00;99.90
3156;DHT22;1588;50.892;7.082;2023-02-19T10:15:50;10.10;99.90
3156;DHT22;1588;50.892;7.082;2023-02-19T10:20:54;10.30;99.90
3156;DHT22;1588;50.892;7.082;2023-02-19T10:25:59;10.10;99.90
3156;DHT22;1588;50.892;7.082;2023-02-19T10:31:04;10.00;99.90
3156;DHT22;1588;50.892;7.082;2023-02-19T10:36:23;10.20;99.90
3156;DHT22;1588;50.892;7.082;2023-02-19T10:41:28;10.40;99.90
3156;DHT22;1588;50.892;7.082;2023-02-19T10:46:32;10.30;99.90
3156;DHT22;1588;50.892;7.082;2023-02-19T10:51:38;10.50;99.90
3156;DHT22;1588;50.892;7.082;2023-02-19T10:56:43;10.40;99.90
3156;DHT22;1588;50.892;7.082;2023-02-19T11:02:14;10.20;99.90
3156;DHT22;1588;50.892;7.082;2023-02-19T11:07:44;10.30;99.90
3156;DHT22;1588;50.892;7.082;2023-02-19T11:13:14;10.40;99.90
3156;DHT22;1588;50.892;7.082;2023-02-19T11:18:21;10.50;99.90
3156;DHT22;1588;50.892;7.082;2023-02-19T11:23:26;10.50;99.90
3156;DHT22;1588;50.892;7.082;2023-02-19T11:28:37;10.40;99.90
3156;DHT22;1588;50.892;7.082;2023-02-19T11:33:44;10.60;99.90
3156;DHT22;1588;50.892;7.082;2023-02-19T11:38:52;10.90;99.90
3156;DHT22;1588;50.892;7.082;2023-02-19T11:44:15;11.10;99.90
3156;DHT22;1588;50.892;7.082;2023-02-19T11:49:29;11.30;99.90
3156;DHT22;1588;50.892;7.082;2023-02-19T11:54:50;11.60;99.90
3156;DHT22;1588;50.892;7.082;2023-02-19T12:00:04;11.70;99.90
3156;DHT22;1588;50.892;7.082;2023-02-19T12:05:20;11.40;99.90
3156;DHT22;1588;50.892;7.082;2023-02-19T12:10:32;11.20;99.90
3156;DHT22;1588;50.892;7.082;2023-02-19T12:15:57;11.00;99.90
3156;DHT22;1588;50.892;7.082;2023-02-19T12:21:13;11.00;99.90
3156;DHT22;1588;50.892;7.082;2023-02-19T12:26:24;11.10;99.90
3156;DHT22;1588;50.892;7.082;2023-02-19T12:32:02;11.30;99.90
3156;DHT22;1588;50.892;7.082;2023-02-19T12:37:23;11.50;99.90
3156;DHT22;1588;50.892;7.082;2023-02-19T12:42:41;11.70;99.90
3156;DHT22;1588;50.892;7.082;2023-02-19T12:47:56;11.80;99.90
3156;DHT22;1588;50.892;7.082;2023-02-19T12:53:06;12.10;99.90
3156;DHT22;1588;50.892;7.082;2023-02-19T12:58:14;12.10;99.90
3156;DHT22;1588;50.892;7.082;2023-02-19T13:03:24;12.10;99.90
3156;DHT22;1588;50.892;7.082;2023-02-19T13:08:33;12.10;99.90
3156;DHT22;1588;50.892;7.082;2023-02-19T13:13:42;12.30;99.90
3156;DHT22;1588;50.892;7.082;2023-02-19T13:18:58;11.90;99.90
3156;DHT22;1588;50.892;7.082;2023-02-19T13:24:04;11.50;99.90
3156;DHT22;1588;50.892;7.082;2023-02-19T13:29:22;11.20;99.90
3156;DHT22;1588;50.892;7.082;2023-02-19T13:34:44;10.90;99.90
3156;DHT22;1588;50.892;7.082;2023-02-19T13:39:51;10.60;99.90
3156;DHT22;1588;50.892;7.082;2023-02-19T13:44:55;10.50;99.90
3156;DHT22;1588;50.892;7.082;2023-02-19T13:50:06;10.40;99.90
3156;DHT22;1588;50.892;7.082;2023-02-19T13:55:45;10.20;99.90
3156;DHT22;1588;50.892;7.082;2023-02-19T14:00:58;10.00;99.90
3156;DHT22;1588;50.892;7.082;2023-02-19T14:06:10;10.00;99.90
3156;DHT22;1588;50.892;7.082;2023-02-19T14:11:13;10.10;99.90
3156;DHT22;1588;50.892;7.082;2023-02-19T14:16:32;10.10;99.90
3156;DHT22;1588;50.892;7.082;2023-02-19T14:21:53;10.10;99.90
3156;DHT22;1588;50.892;7.082;2023-02-19T14:26:56;10.20;99.90
3156;DHT22;1588;50.892;7.082;2023-02-19T14:32:04;10.10;99.90
3156;DHT22;1588;50.892;7.082;2023-02-19T14:37:15;10.00;99.90
3156;DHT22;1588;50.892;7.082;2023-02-19T14:42:21;10.30;99.90
3156;DHT22;1588;50.892;7.082;2023-02-19T14:47:26;10.20;99.90
3156;DHT22;1588;50.892;7.082;2023-02-19T14:52:39;10.20;99.90
3156;DHT22;1588;50.892;7.082;2023-02-19T14:57:46;10.40;99.90
3156;DHT22;1588;50.892;7.082;2023-02-19T15:02:53;10.40;99.90
3156;DHT22;1588;50.892;7.082;2023-02-19T15:08:01;10.40;99.90
3156;DHT22;1588;50.892;7.082;2023-02-19T15:13:06;10.30;99.90
3156;DHT22;1588;50.892;7.082;2023-02-19T15:18:23;10.20;99.90
3156;DHT22;1588;50.892;7.082;2023-02-19T15:23:34;10.20;99.90
3156;DHT22;1588;50.892;7.082;2023-02-19T15:28:37;10.00;99.90
3156;DHT22;1588;50.892;7.082;2023-02-19T15:33:52;9.90;99.90
3156;DHT22;1588;50.892;7.082;2023-02-19T15:38:58;9.80;99.90
3156;DHT22;1588;50.892;7.082;2023-02-19T15:44:17;9.70;99.90
3156;DHT22;1588;50.892;7.082;2023-02-19T15:49:27;9.80;99.90
3156;DHT22;1588;50.892;7.082;2023-02-19T15:54:35;9.70;99.90
3156;DHT22;1588;50.892;7.082;2023-02-19T15:59:40;9.80;99.90
3156;DHT22;1588;50.892;7.082;2023-02-19T16:04:45;9.70;99.90
3156;DHT22;1588;50.892;7.082;2023-02-19T16:10:04;9.70;99.90
3156;DHT22;1588;50.892;7.082;2023-02-19T16:15:12;9.70;99.90
3156;DHT22;1588;50.892;7.082;2023-02-19T16:20:19;9.70;99.90
3156;DHT22;1588;50.892;7.082;2023-02-19T16:25:35;9.70;99.90
3156;DHT22;1588;50.892;7.082;2023-02-19T16:30:42;9.60;99.90
3156;DHT22;1588;50.892;7.082;2023-02-19T16:35:45;9.60;99.90
3156;DHT22;1588;50.892;7.082;2023-02-19T16:41:10;9.60;99.90
3156;DHT22;1588;50.892;7.082;2023-02-19T16:46:13;9.50;99.90
3156;DHT22;1588;50.892;7.082;2023-02-19T16:51:24;9.50;99.90
3156;DHT22;1588;50.892;7.082;2023-02-19T16:56:39;9.50;99.90
3156;DHT22;1588;50.892;7.082;2023-02-19T17:01:52;9.50;99.90
3156;DHT22;1588;50.892;7.082;2023-02-19T17:06:55;9.50;99.90
3156;DHT22;1588;50.892;7.082;2023-02-19T17:12:02;9.50;99.90
3156;DHT22;1588;50.892;7.082;2023-02-19T17:17:05;9.40;99.90
3156;DHT22;1588;50.892;7.082;2023-02-19T17:22:10;9.40;99.90
3156;DHT22;1588;50.892;7.082;2023-02-19T17:27:18;9.40;99.90
3156;DHT22;1588;50.892;7.082;2023-02-19T17:32:21;9.40;99.90
3156;DHT22;1588;50.892;7.082;2023-02-19T17:37:23;9.40;99.90
3156;DHT22;1588;50.892;7.082;2023-02-19T17:42:28;9.40;99.90
3156;DHT22;1588;50.892;7.082;2023-02-19T17:47:34;9.40;99.90
3156;DHT22;1588;50.892;7.082;2023-02-19T17:52:45;9.40;99.90
3156;DHT22;1588;50.892;7.082;2023-02-19T17:57:52;9.30;99.90
3156;DHT22;1588;50.892;7.082;2023-02-19T18:02:55;9.30;99.90
3156;DHT22;1588;50.892;7.082;2023-02-19T18:07:57;9.20;99.90
3156;DHT22;1588;50.892;7.082;2023-02-19T18:13:02;9.20;99.90
3156;DHT22;1588;50.892;7.082;2023-02-19T18:18:05;9.10;99.90
3156;DHT22;1588;50.892;7.082;2023-02-19T18:23:09;9.00;99.90
3156;DHT22;1588;50.892;7.082;2023-02-19T18:28:14;9.00;99.90
3156;DHT22;1588;50.892;7.082;2023-02-19T18:33:20;8.90;99.90
3156;DHT22;1588;50.892;7.082;2023-02-19T18:38:34;8.80;99.90
3156;DHT22;1588;50.892;7.082;2023-02-19T18:43:50;8.80;99.90
3156;DHT22;1588;50.892;7.082;2023-02-19T18:48:53;8.80;99.90
3156;DHT22;1588;50.892;7.082;2023-02-19T18:53:55;8.70;99.90
3156;DHT22;1588;50.892;7.082;2023-02-19T18:58:59;8.70;99.90
3156;DHT22;1588;50.892;7.082;2023-02-19T19:04:05;8.70;99.90
3156;DHT22;1588;50.892;7.082;2023-02-19T19:09:11;8.70;99.90
3156;DHT22;1588;50.892;7.082;2023-02-19T19:14:17;8.60;99.90
3156;DHT22;1588;50.892;7.082;2023-02-19T19:19:21;8.50;99.90
3156;DHT22;1588;50.892;7.082;2023-02-19T19:24:26;8.60;99.90
3156;DHT22;1588;50.892;7.082;2023-02-19T19:29:30;8.50;99.90
3156;DHT22;1588;50.892;7.082;2023-02-19T19:34:38;8.50;99.90
3156;DHT22;1588;50.892;7.082;2023-02-19T19:39:41;8.40;99.90
3156;DHT22;1588;50.892;7.082;2023-02-19T19:44:46;8.40;99.90
3156;DHT22;1588;50.892;7.082;2023-02-19T19:49:48;8.40;99.90
3156;DHT22;1588;50.892;7.082;2023-02-19T19:54:51;8.40;99.90
3156;DHT22;1588;50.892;7.082;2023-02-19T19:59:55;8.40;99.90
3156;DHT22;1588;50.892;7.082;2023-02-19T20:04:58;8.40;99.90
3156;DHT22;1588;50.892;7.082;2023-02-19T20:10:07;8.30;99.90
3156;DHT22;1588;50.892;7.082;2023-02-19T20:15:17;8.30;99.90
3156;DHT22;1588;50.892;7.082;2023-02-19T20:20:21;8.20;99.90
3156;DHT22;1588;50.892;7.082;2023-02-19T20:25:25;8.20;99.90
3156;DHT22;1588;50.892;7.082;2023-02-19T20:30:30;8.20;99.90
3156;DHT22;1588;50.892;7.082;2023-02-19T20:35:32;8.20;99.90
3156;DHT22;1588;50.892;7.082;2023-02-19T20:40:36;8.20;99.90
3156;DHT22;1588;50.892;7.082;2023-02-19T20:45:40;8.10;99.90
3156;DHT22;1588;50.892;7.082;2023-02-19T20:50:45;8.10;99.90
3156;DHT22;1588;50.892;7.082;2023-02-19T20:55:53;8.00;99.90
3156;DHT22;1588;50.892;7.082;2023-02-19T21:01:11;7.90;99.90
3156;DHT22;1588;50.892;7.082;2023-02-19T21:06:19;7.80;99.90
3156;DHT22;1588;50.892;7.082;2023-02-19T21:11:32;7.80;99.90
3156;DHT22;1588;50.892;7.082;2023-02-19T21:16:41;7.70;99.90
3156;DHT22;1588;50.892;7.082;2023-02-19T21:21:47;7.70;99.90
3156;DHT22;1588;50.892;7.082;2023-02-19T21:26:51;7.60;99.90
3156;DHT22;1588;50.892;7.082;2023-02-19T21:31:57;7.50;99.90
3156;DHT22;1588;50.892;7.082;2023-02-19T21:36:59;7.50;99.90
3156;DHT22;1588;50.892;7.082;2023-02-19T21:42:05;7.30;99.90
3156;DHT22;1588;50.892;7.082;2023-02-19T21:47:20;7.20;99.90
3156;DHT22;1588;50.892;7.082;2023-02-19T21:52:26;7.10;99.90
3156;DHT22;1588;50.892;7.082;2023-02-19T21:57:31;7.10;99.90
3156;DHT22;1588;50.892;7.082;2023-02-19T22:02:37;7.10;99.90
3156;DHT22;1588;50.892;7.082;2023-02-19T22:07:46;7.00;99.90
3156;DHT22;1588;50.892;7.082;2023-02-19T22:12:50;6.80;99.90
3156;DHT22;1588;50.892;7.082;2023-02-19T22:17:54;6.70;99.90
3156;DHT22;1588;50.892;7.082;2023-02-19T22:23:00;6.60;99.90
3156;DHT22;1588;50.892;7.082;2023-02-19T22:28:03;6.40;99.90
3156;DHT22;1588;50.892;7.082;2023-02-19T22:33:12;6.10;99.90
3156;DHT22;1588;50.892;7.082;2023-02-19T22:38:15;5.90;99.90
3156;DHT22;1588;50.892;7.082;2023-02-19T22:43:18;5.70;99.90
3156;DHT22;1588;50.892;7.082;2023-02-19T22:48:30;5.50;99.90
3156;DHT22;1588;50.892;7.082;2023-02-19T22:53:35;5.40;99.90
3156;DHT22;1588;50.892;7.082;2023-02-19T22:58:40;5.20;99.90
3156;DHT22;1588;50.892;7.082;2023-02-19T23:03:50;5.10;99.90
3156;DHT22;1588;50.892;7.082;2023-02-19T23:08:53;5.00;99.90
3156;DHT22;1588;50.892;7.082;2023-02-19T23:13:57;4.90;99.90
3156;DHT22;1588;50.892;7.082;2023-02-19T23:19:01;4.90;99.90
3156;DHT22;1588;50.892;7.082;2023-02-19T23:24:05;4.80;99.90
3156;DHT22;1588;50.892;7.082;2023-02-19T23:29:18;4.80;99.90
3156;DHT22;1588;50.892;7.082;2023-02-19T23:34:25;4.80;99.90
3156;DHT22;1588;50.892;7.082;2023-02-19T23:39:29;4.60;99.90
3156;DHT22;1588;50.892;7.082;2023-02-19T23:44:34;4.50;99.90
3156;DHT22;1588;50.892;7.082;2023-02-19T23:49:48;4.40;99.90
3156;DHT22;1588;50.892;7.082;2023-02-19T23:54:54;4.40;99.90
3156;DHT22;1588;50.892;7.082;2023-02-19T23:59:59;4.30;99.90
